Latest Weather Observations for Moruya Airport

IDN60801

Issued at 8:42 pm EDT Monday 25 March 2019 (issued every 10 minutes, with the page automatically refreshed every 10 minutes)

About weather observations | Map of weather stations | Latest weather observations for NSW | Other Formats
Station Details ID: 069148 Name: MORUYA AIRPORT AWS Lat: -35.90 Lon: 150.14 Height: 4.0 m
Data from the previous 72 hours. | See also: Recent months at Moruya Airport
Date/Time
EDT
Temp
°C
App
Temp
°C
Dew
Point
°C
Rel
Hum
%
Delta-T
°C
Wind Press
QNH
hPa
Press
MSL
hPa
Rain since
9am
mm
Dir  Spd
km/h
Gust
km/h
Spd
kts
Gust
kts
25/08:30pm 20.8 18.1 16.6 77 2.5 SSE 26 35 14 19 1008.4 1008.3 0.0
25/08:00pm 20.9 18.5 17.3 80 2.2 SSE 26 35 14 19 1007.7 1007.6 0.0
25/07:30pm 21.6 18.8 18.2 81 2.1 SSE 30 41 16 22 1006.7 1006.6 0.0
25/07:00pm 23.5 22.0 18.6 74 3.1 SSE 24 33 13 18 1006.0 1005.9 0.0
25/06:30pm 27.6 24.0 9.9 33 9.9 WSW 19 32 10 17 1004.9 1004.8 0.0
25/06:00pm 27.7 26.5 11.7 37 9.2 W 9 24 5 13 1004.3 1004.2 0.0
25/05:30pm 27.1 26.3 14.1 44 7.7 NNW 11 22 6 12 1003.7 1003.6 0.0
25/05:00pm 27.7 26.9 14.0 43 8.2 NNW 11 19 6 10 1002.8 1002.7 0.0
25/04:30pm 27.5 26.4 14.2 44 8.0 NNW 13 24 7 13 1002.2 1002.1 0.0
25/04:00pm 27.5 25.6 14.2 44 8.0 NNW 17 24 9 13 1001.6 1001.5 0.0
25/03:30pm 27.8 24.9 15.1 46 7.7 NNW 24 37 13 20 1001.0 1000.9 0.0
25/03:00pm 28.5 26.7 16.1 47 7.7 N 20 37 11 20 1001.2 1001.1 0.0
25/02:30pm 26.9 24.0 15.0 48 7.2 NNW 24 44 13 24 1001.1 1001.0 0.0
25/02:00pm 26.7 23.5 15.4 50 6.9 N 26 43 14 23 1001.5 1001.4 0.0
25/01:30pm 26.1 23.6 15.2 51 6.6 NNW 22 37 12 20 1001.7 1001.6 0.0
25/01:00pm 26.1 22.6 15.5 52 6.5 NNW 28 46 15 25 1002.0 1001.9 0.0
25/12:55pm 26.1 22.6 15.5 52 6.4 NNW 28 46 15 25 1001.9 1001.8 0.0
25/12:30pm 25.4 21.7 15.1 53 6.2 NNW 28 44 15 24 1002.5 1002.4 0.0
25/12:00pm 24.9 23.0 15.2 54 5.9 NNW 19 32 10 17 1002.6 1002.5 0.0
25/11:30am 24.8 21.8 14.9 54 5.9 NNW 24 43 13 23 1002.7 1002.6 0.0
25/11:00am 24.5 22.7 15.4 57 5.5 N 19 32 10 17 1003.2 1003.1 0.0
25/10:30am 24.2 21.7 15.1 56 5.4 NNW 22 46 12 25 1003.2 1003.1 0.0
25/10:00am 24.1 20.8 15.1 57 5.4 N 26 48 14 26 1003.5 1003.4 0.0
25/09:38am 24.1 20.3 14.8 56 5.5 N 28 50 15 27 1003.5 1003.4 0.0
25/09:30am 23.9 21.3 14.9 57 5.4 N 22 50 12 27 1003.4 1003.3 0.0
25/09:00am 23.9 20.8 14.6 56 5.5 NNW 24 46 13 25 1003.3 1003.2 0.0
25/08:30am 24.1 20.2 14.5 55 5.7 NNW 28 54 15 29 1003.1 1003.0 0.0
25/08:00am 24.0 19.3 14.4 55 5.7 NNW 32 61 17 33 1002.0 1001.9 0.0
25/07:36am 24.4 20.4 14.2 53 6.0 NW 28 54 15 29 1002.6 1002.5 0.0
25/07:30am 24.4 21.2 14.2 53 6.0 NW 24 48 13 26 1002.6 1002.5 0.0
25/07:00am 24.8 19.5 14.3 52 6.2 NNW 35 70 19 38 1001.7 1001.6 0.0
25/06:30am 25.0 21.1 14.5 52 6.2 NW 28 54 15 29 1001.7 1001.6 0.0
25/06:00am 25.6 20.8 14.7 51 6.5 NNW 33 57 18 31 1002.2 1002.1 0.0
25/05:54am 25.6 21.8 14.7 51 6.5 NNW 28 57 15 31 1002.0 1001.9 0.0
25/05:30am 25.5 22.4 14.6 51 6.5 NW 24 48 13 26 1001.6 1001.5 0.0
25/05:09am 25.7 21.9 14.8 51 6.5 NNW 28 50 15 27 1001.1 1001.0 0.0
25/05:00am 25.5 23.4 14.6 51 6.5 NNW 19 37 10 20 1001.6 1001.5 0.0
25/04:30am 25.0 23.2 14.5 52 6.2 N 17 28 9 15 1001.4 1001.3 0.0
25/04:00am 25.2 22.4 14.3 50 6.5 N 22 43 12 23 1001.7 1001.6 0.0
25/03:30am 23.9 22.0 14.3 55 5.7 NNE 17 24 9 13 1002.8 1002.7 0.0
25/03:00am 24.2 22.1 14.6 55 5.7 NNE 19 26 10 14 1003.1 1003.0 0.0
25/02:30am 24.7 23.3 14.5 53 6.1 N 15 24 8 13 1004.2 1004.1 0.0
25/02:00am 24.5 23.6 14.9 55 5.8 N 13 20 7 11 1004.3 1004.2 0.0
25/01:30am 23.8 23.6 14.8 57 5.4 NNW 9 17 5 9 1004.3 1004.2 0.0
25/01:00am 23.1 23.2 15.4 62 4.6 N 9 26 5 14 1004.8 1004.7 0.0
25/12:30am 22.8 22.1 15.4 63 4.4 N 13 17 7 9 1005.3 1005.2 0.0
25/12:00am 23.7 23.5 15.7 61 4.8 N 11 20 6 11 1006.2 1006.1 0.0
 
Date/Time
EDT
Temp
°C
App
Temp
°C
Dew
Point
°C
Rel
Hum
%
Delta-T
°C
Wind Press
QNH
hPa
Press
MSL
hPa
Rain since
9am
mm
Dir  Spd
km/h
Gust
km/h
Spd
kts
Gust
kts
24/11:30pm 23.3 21.9 17.1 68 3.8 N 20 26 11 14 1005.9 1005.8 0.0
24/11:00pm 22.0 22.8 19.0 83 1.9 N 13 15 7 8 1006.2 1006.1 0.0
24/10:30pm 22.5 23.4 19.3 82 2.0 N 13 17 7 9 1006.6 1006.5 0.0
24/10:00pm 21.7 23.7 20.0 90 1.1 NNW 9 13 5 7 1007.0 1006.9 0.0
24/09:30pm 21.9 24.1 20.4 91 1.0 N 9 15 5 8 1007.4 1007.3 0.0
24/09:00pm 21.6 24.0 20.1 91 1.0 NW 7 13 4 7 1007.8 1007.7 0.0
24/08:30pm 21.7 25.4 20.0 90 1.1 CALM 0 0 0 0 1008.0 1007.9 0.0
24/08:08pm 21.9 24.5 20.0 89 1.2 W 6 9 3 5 1008.0 1007.9 0.0
24/08:00pm 22.0 24.6 20.1 89 1.2 W 6 7 3 4 1008.0 1007.9 0.0
24/07:30pm 22.4 24.9 20.3 88 1.4 SSW 7 9 4 5 1008.1 1008.0 0.0
24/07:00pm 22.8 26.0 20.5 87 1.5 SE 4 7 2 4 1008.1 1008.0 0.0
24/06:40pm 22.8 25.4 20.5 87 1.5 ESE 7 11 4 6 1008.2 1008.1 0.0
24/06:30pm 22.7 24.8 20.2 86 1.6 SE 9 13 5 7 1008.2 1008.1 0.0
24/06:00pm 22.8 24.4 20.0 84 1.8 SE 11 15 6 8 1008.4 1008.3 0.0
24/05:30pm 23.1 24.4 20.1 83 1.9 SE 13 17 7 9 1008.8 1008.7 0.0
24/05:17pm 23.1 24.4 20.1 83 1.9 SE 13 17 7 9 1008.8 1008.7 0.0
24/05:00pm 23.2 24.8 20.0 82 2.1 SE 11 15 6 8 1008.7 1008.6 0.0
24/04:30pm 23.2 24.4 20.0 82 2.1 ESE 13 17 7 9 1008.6 1008.5 0.0
24/04:00pm 23.5 24.4 20.0 81 2.3 E 15 20 8 11 1008.5 1008.4 0.0
24/03:30pm 23.4 23.8 19.8 80 2.3 E 17 19 9 10 1009.0 1008.9 0.0
24/03:04pm 24.4 24.5 19.9 76 2.9 E 19 24 10 13 1009.1 1009.0 0.0
24/03:00pm 24.9 25.0 20.4 76 2.9 E 20 24 11 13 1009.1 1009.0 0.0
24/02:30pm 24.8 24.9 20.3 76 2.9 ENE 20 24 11 13 1009.2 1009.1 0.0
24/02:00pm 24.4 24.3 19.5 74 3.1 ENE 19 22 10 12 1009.7 1009.6 0.0
24/01:30pm 24.3 24.7 18.9 72 3.4 ENE 15 17 8 9 1010.4 1010.3 0.0
24/01:00pm 24.5 24.8 19.6 74 3.2 ENE 17 20 9 11 1010.5 1010.4 0.0
24/12:30pm 23.9 24.7 19.0 74 3.1 ENE 13 15 7 8 1011.3 1011.2 0.0
24/12:00pm 23.3 24.6 18.4 74 3.1 NNE 9 11 5 6 1011.7 1011.6 0.0
24/11:30am 23.2 24.6 17.9 72 3.3 NE 7 13 4 7 1012.1 1012.0 0.0
24/11:00am 22.5 23.9 18.7 79 2.4 NE 9 13 5 7 1012.4 1012.3 0.0
24/10:30am 22.1 23.3 18.3 79 2.4 N 9 11 5 6 1012.8 1012.7 0.0
24/10:00am 21.3 24.2 18.1 82 2.0 CALM 0 6 0 3 1013.0 1012.9 0.0
24/09:30am 21.0 21.9 17.6 81 2.1 WNW 9 13 5 7 1012.6 1012.5 0.0
24/09:00am 20.8 20.9 17.4 81 2.1 WSW 13 19 7 10 1012.3 1012.2 0.4
24/08:30am 20.5 21.4 18.3 87 1.4 W 11 15 6 8 1011.9 1011.8 0.4
24/08:00am 20.6 21.4 18.2 86 1.5 WSW 11 17 6 9 1011.4 1011.3 0.4
24/07:30am 21.0 20.6 18.0 83 1.9 S 17 24 9 13 1010.8 1010.7 0.2
24/07:00am 19.1 19.1 16.3 84 1.7 WSW 11 17 6 9 1010.4 1010.3 0.2
24/06:30am 19.0 20.4 17.7 92 0.8 SSW 7 11 4 6 1009.8 1009.7 0.2
24/06:00am 18.5 21.2 17.7 95 0.5 CALM 0 0 0 0 1009.4 1009.3 0.2
24/05:30am 18.2 20.4 17.4 95 0.5 N 2 7 1 4 1008.8 1008.7 0.2
24/05:00am 18.4 20.7 17.8 96 0.4 NNW 2 7 1 4 1008.5 1008.4 0.2
24/04:30am 18.4 19.9 17.6 95 0.5 W 6 7 3 4 1008.4 1008.3 0.2
24/04:00am 18.4 19.9 17.6 95 0.5 NNW 6 7 3 4 1008.6 1008.5 0.2
24/03:44am 18.5 20.0 17.7 95 0.5 NE 6 7 3 4 1008.5 1008.4 0.2
24/03:30am 18.5 21.2 17.7 95 0.5 CALM 0 0 0 0 1008.6 1008.5 0.2
24/03:00am 18.7 20.3 17.9 95 0.5 WNW 6 7 3 4 1008.9 1008.8 0.2
24/02:52am 18.8 20.5 18.0 95 0.5 WNW 6 7 3 4 1008.9 1008.8 0.2
24/02:30am 18.5 20.8 17.7 95 0.5 WNW 2 7 1 4 1008.9 1008.8 0.2
24/02:17am 18.8 20.9 18.0 95 0.5 WNW 4 9 2 5 1008.9 1008.8 0.2
24/02:00am 19.1 22.0 18.1 94 0.6 CALM 0 0 0 0 1009.0 1008.9 0.2
24/01:30am 19.5 22.5 18.5 94 0.6 CALM 0 0 0 0 1009.1 1009.0 0.2
24/01:01am 20.1 23.4 19.1 94 0.6 CALM 0 0 0 0 1009.2 1009.1 0.2
24/01:00am 20.0 23.3 19.0 94 0.6 CALM 0 0 0 0 1009.3 1009.2 0.2
24/12:30am 20.2 23.5 19.2 94 0.6 CALM 0 0 0 0 1009.7 1009.6 0.2
24/12:00am 20.5 24.0 19.5 94 0.6 CALM 0 0 0 0 1009.7 1009.6 0.2
 
Date/Time
EDT
Temp
°C
App
Temp
°C
Dew
Point
°C
Rel
Hum
%
Delta-T
°C
Wind Press
QNH
hPa
Press
MSL
hPa
Rain since
9am
mm
Dir  Spd
km/h
Gust
km/h
Spd
kts
Gust
kts
23/11:30pm 20.4 23.8 19.4 94 0.6 CALM 0 0 0 0 1009.6 1009.5 0.2
23/11:00pm 20.5 24.0 19.5 94 0.6 CALM 0 0 0 0 1009.7 1009.6 0.2
23/10:30pm 20.8 24.4 19.8 94 0.6 CALM 0 0 0 0 1009.6 1009.5 0.2
23/10:00pm 21.0 24.7 20.0 94 0.6 CALM 0 0 0 0 1009.5 1009.4 0.2
23/09:41pm 20.6 24.1 19.6 94 0.6 CALM 0 0 0 0 1009.7 1009.6 0.2
23/09:30pm 20.6 24.1 19.6 94 0.6 CALM 0 6 0 3 1009.6 1009.5 0.2
23/09:06pm 20.7 23.0 19.5 93 0.8 N 6 6 3 3 1009.6 1009.5 0.2
23/09:00pm 21.0 23.5 19.8 93 0.8 N 6 7 3 4 1009.6 1009.5 0.2
23/08:30pm 21.5 24.1 20.1 92 0.9 N 6 9 3 5 1009.7 1009.6 0.2
23/08:00pm 21.9 24.1 20.5 92 0.9 N 9 15 5 8 1009.7 1009.6 0.0
23/07:30pm 21.9 24.1 20.5 92 0.9 N 9 13 5 7 1009.8 1009.7 0.0
23/07:00pm 22.2 25.1 20.7 91 1.0 N 6 7 3 4 1009.8 1009.7 0.0
23/06:30pm 22.4 25.1 20.7 90 1.1 N 7 11 4 6 1009.9 1009.8 0.0
23/06:00pm 22.7 24.7 20.8 89 1.2 N 11 17 6 9 1010.0 1009.9 0.0
23/05:30pm 22.9 23.8 20.8 88 1.4 NE 17 26 9 14 1009.7 1009.6 0.0
23/05:00pm 23.0 24.5 20.5 86 1.6 NNE 13 17 7 9 1010.2 1010.1 0.0
23/04:30pm 23.0 24.5 20.5 86 1.6 NNE 13 19 7 10 1010.0 1009.9 0.0
23/04:00pm 23.2 24.2 20.2 83 1.9 NNE 15 19 8 10 1010.1 1010.0 0.0
23/03:30pm 23.5 24.3 19.8 80 2.4 NE 15 19 8 10 1010.3 1010.2 0.0
23/03:00pm 23.6 23.5 19.5 78 2.6 NNE 19 22 10 12 1010.1 1010.0 0.0
23/02:30pm 23.6 23.4 19.7 79 2.5 NNE 20 26 11 14 1010.2 1010.1 0.0
23/02:00pm 23.8 23.0 19.3 76 2.9 NE 22 28 12 15 1010.7 1010.6 0.0
23/01:30pm 24.0 24.0 19.7 77 2.8 NE 19 24 10 13 1011.1 1011.0 0.0
23/01:00pm 23.5 23.0 19.2 77 2.7 NE 20 28 11 15 1011.2 1011.1 0.0
23/12:30pm 23.7 22.7 18.8 74 3.1 NE 22 30 12 16 1011.5 1011.4 0.0
23/12:00pm 24.0 22.7 19.1 74 3.1 NE 24 32 13 17 1011.7 1011.6 0.0
23/11:30am 24.5 23.7 18.4 69 3.9 NE 20 26 11 14 1012.1 1012.0 0.0
23/11:00am 24.8 24.2 17.5 64 4.6 N 17 26 9 14 1012.6 1012.5 0.0
23/10:30am 23.6 23.1 16.9 66 4.1 NNE 15 24 8 13 1013.1 1013.0 0.0
23/10:00am 22.9 23.5 17.6 72 3.3 N 11 15 6 8 1013.3 1013.2 0.0
23/09:30am 20.2 22.1 17.6 85 1.6 NNW 4 9 2 5 1013.6 1013.5 0.0
23/09:00am 19.3 21.1 17.4 89 1.2 NW 4 7 2 4 1013.6 1013.5 0.0
23/08:30am 18.9 21.8 18.1 95 0.5 CALM 0 6 0 3 1013.5 1013.4 0.0
23/08:00am 16.9 19.0 16.3 96 0.4 CALM 0 0 0 0 1013.7 1013.6 0.0
23/07:37am 15.8 17.5 15.2 96 0.3 CALM 0 0 0 0 1013.9 1013.8 0.0
23/07:30am 15.6 17.2 15.0 96 0.3 CALM 0 0 0 0 1013.9 1013.8 0.0
23/07:01am 15.1 16.5 14.5 96 0.3 CALM 0 4 0 2 1013.8 1013.7 0.0
23/07:00am 15.1 16.5 14.5 96 0.3 CALM 0 6 0 3 1013.8 1013.7 0.0
23/06:46am 15.4 15.8 14.8 96 0.3 NW 6 9 3 5 1014.0 1013.9 0.0
23/06:30am 15.2 16.6 14.4 95 0.5 CALM 0 0 0 0 1013.9 1013.8 0.0
23/06:00am 15.6 17.2 14.8 95 0.5 CALM 0 0 0 0 1013.9 1013.8 0.0
23/05:30am 15.5 17.0 14.7 95 0.5 CALM 0 0 0 0 1013.9 1013.8 0.0
23/05:10am 15.4 16.9 14.6 95 0.5 CALM 0 0 0 0 1013.9 1013.8 0.0
23/05:00am 15.8 17.4 15.0 95 0.5 CALM 0 0 0 0 1014.0 1013.9 0.0
23/04:33am 16.2 17.2 15.4 95 0.5 WNW 4 7 2 4 1013.9 1013.8 0.0
23/04:30am 16.1 17.5 15.3 95 0.5 WNW 2 7 1 4 1013.9 1013.8 0.0
23/04:00am 16.6 18.4 15.6 94 0.6 CALM 0 0 0 0 1014.0 1013.9 0.0
23/03:53am 16.6 18.4 15.6 94 0.6 CALM 0 0 0 0 1014.2 1014.1 0.0
23/03:30am 17.0 19.0 16.0 94 0.6 CALM 0 0 0 0 1014.5 1014.4 0.0
23/03:18am 17.2 19.3 16.2 94 0.6 CALM 0 0 0 0 1014.5 1014.4 0.0
23/03:00am 17.1 19.1 16.0 93 0.6 CALM 0 0 0 0 1014.8 1014.7 0.0
23/02:51am 17.1 19.1 16.0 93 0.6 CALM 0 0 0 0 1014.9 1014.8 0.0
23/02:30am 17.9 19.8 16.8 93 0.7 WNW 2 4 1 2 1015.1 1015.0 0.0
23/02:00am 18.0 19.1 16.7 92 0.8 W 6 9 3 5 1015.1 1015.0 0.0
23/01:30am 18.4 19.5 17.2 93 0.7 W 7 11 4 6 1015.3 1015.2 0.0
23/01:00am 18.2 20.7 17.2 94 0.6 CALM 0 6 0 3 1015.6 1015.5 0.0
23/12:30am 18.2 20.7 17.2 94 0.6 CALM 0 0 0 0 1015.7 1015.6 0.0
23/12:00am 17.8 20.1 16.8 94 0.6 CALM 0 0 0 0 1015.9 1015.8 0.0
 
Date/Time
EDT
Temp
°C
App
Temp
°C
Dew
Point
°C
Rel
Hum
%
Delta-T
°C
Wind Press
QNH
hPa
Press
MSL
hPa
Rain since
9am
mm
Dir  Spd
km/h
Gust
km/h
Spd
kts
Gust
kts
22/11:30pm 17.8 19.7 16.7 93 0.7 W 2 6 1 3 1015.8 1015.7 0.0
22/11:00pm 18.2 20.6 17.0 93 0.7 CALM 0 0 0 0 1015.9 1015.8 0.0
22/10:30pm 18.4 20.1 17.1 92 0.8 WNW 4 7 2 4 1016.2 1016.1 0.0
22/10:00pm 18.7 21.2 17.2 91 0.9 CALM 0 0 0 0 1016.2 1016.1 0.0
22/09:30pm 18.7 20.9 16.5 87 1.3 CALM 0 0 0 0 1015.8 1015.7 0.0
22/09:00pm 19.5 21.9 17.1 86 1.5 CALM 0 0 0 0 1015.6 1015.5 0.0

Other formats

Comma delimited format used in spreadsheet applications
http://www.bom.gov.au/fwo/IDN60801/IDN60801.95937.axf

JavaScript Object Notation format (JSON) in row-major order
http://www.bom.gov.au/fwo/IDN60801/IDN60801.95937.json

Data quality

Most of these data are generated automatically and are frequently updated. Quality checks on data are not normally performed. It is possible for incorrect values to appear. Refer to information at About Latest Weather Observations and please check the disclaimer before using these data.